sensor_id;sensor_type;location;lat;lon;timestamp;P1;durP1;ratioP1;P2;durP2;ratioP2
1218;SDS011;599;51.494;6.670;2022-09-29T00:00:31;22.00;;;16.83;;
1218;SDS011;599;51.494;6.670;2022-09-29T00:02:57;20.37;;;16.13;;
1218;SDS011;599;51.494;6.670;2022-09-29T00:05:23;19.20;;;16.93;;
1218;SDS011;599;51.494;6.670;2022-09-29T00:07:49;19.27;;;16.93;;
1218;SDS011;599;51.494;6.670;2022-09-29T00:10:15;19.63;;;17.53;;
1218;SDS011;599;51.494;6.670;2022-09-29T00:12:40;19.37;;;17.30;;
1218;SDS011;599;51.494;6.670;2022-09-29T00:15:06;19.00;;;16.53;;
1218;SDS011;599;51.494;6.670;2022-09-29T00:17:33;20.65;;;15.85;;
1218;SDS011;599;51.494;6.670;2022-09-29T00:19:59;20.93;;;16.10;;
1218;SDS011;599;51.494;6.670;2022-09-29T00:22:25;18.50;;;16.33;;
1218;SDS011;599;51.494;6.670;2022-09-29T00:24:51;20.30;;;17.67;;
1218;SDS011;599;51.494;6.670;2022-09-29T00:27:17;19.70;;;17.07;;
1218;SDS011;599;51.494;6.670;2022-09-29T00:29:44;20.42;;;18.23;;
1218;SDS011;599;51.494;6.670;2022-09-29T00:32:11;24.88;;;17.10;;
1218;SDS011;599;51.494;6.670;2022-09-29T00:34:37;18.17;;;15.23;;
1218;SDS011;599;51.494;6.670;2022-09-29T00:37:03;21.70;;;16.73;;
1218;SDS011;599;51.494;6.670;2022-09-29T00:39:29;20.00;;;15.68;;
1218;SDS011;599;51.494;6.670;2022-09-29T00:41:55;19.33;;;17.30;;
1218;SDS011;599;51.494;6.670;2022-09-29T00:46:48;21.53;;;16.30;;
1218;SDS011;599;51.494;6.670;2022-09-29T00:51:55;21.05;;;18.27;;
1218;SDS011;599;51.494;6.670;2022-09-29T00:54:45;28.75;;;23.55;;
1218;SDS011;599;51.494;6.670;2022-09-29T00:57:40;31.92;;;23.50;;
1218;SDS011;599;51.494;6.670;2022-09-29T01:00:18;25.98;;;20.65;;
1218;SDS011;599;51.494;6.670;2022-09-29T01:02:46;28.02;;;19.95;;
1218;SDS011;599;51.494;6.670;2022-09-29T01:05:25;29.10;;;20.58;;
1218;SDS011;599;51.494;6.670;2022-09-29T01:08:02;29.30;;;21.27;;
1218;SDS011;599;51.494;6.670;2022-09-29T01:10:55;32.63;;;22.80;;
1218;SDS011;599;51.494;6.670;2022-09-29T01:13:23;29.65;;;21.80;;
1218;SDS011;599;51.494;6.670;2022-09-29T01:15:49;38.63;;;24.20;;
1218;SDS011;599;51.494;6.670;2022-09-29T01:18:15;30.47;;;22.50;;
1218;SDS011;599;51.494;6.670;2022-09-29T01:20:51;28.60;;;23.07;;
1218;SDS011;599;51.494;6.670;2022-09-29T01:44:28;29.60;;;22.05;;
1218;SDS011;599;51.494;6.670;2022-09-29T01:47:26;28.95;;;21.55;;
1218;SDS011;599;51.494;6.670;2022-09-29T01:50:03;31.60;;;22.38;;
1218;SDS011;599;51.494;6.670;2022-09-29T01:52:57;24.33;;;21.02;;
1218;SDS011;599;51.494;6.670;2022-09-29T01:55:43;30.35;;;21.52;;
1218;SDS011;599;51.494;6.670;2022-09-29T01:58:16;27.40;;;21.15;;
1218;SDS011;599;51.494;6.670;2022-09-29T02:00:52;27.92;;;21.63;;
1218;SDS011;599;51.494;6.670;2022-09-29T02:03:23;29.38;;;21.98;;
1218;SDS011;599;51.494;6.670;2022-09-29T02:06:03;37.90;;;21.10;;
1218;SDS011;599;51.494;6.670;2022-09-29T02:08:37;26.02;;;20.83;;
1218;SDS011;599;51.494;6.670;2022-09-29T02:11:13;26.65;;;20.10;;
1218;SDS011;599;51.494;6.670;2022-09-29T02:16:56;33.22;;;22.55;;
1218;SDS011;599;51.494;6.670;2022-09-29T02:19:33;27.15;;;22.25;;
1218;SDS011;599;51.494;6.670;2022-09-29T02:22:03;34.90;;;22.85;;
1218;SDS011;599;51.494;6.670;2022-09-29T02:24:29;26.23;;;21.53;;
1218;SDS011;599;51.494;6.670;2022-09-29T02:26:55;24.50;;;19.75;;
1218;SDS011;599;51.494;6.670;2022-09-29T02:29:22;31.40;;;23.77;;
1218;SDS011;599;51.494;6.670;2022-09-29T02:31:48;31.23;;;21.75;;
1218;SDS011;599;51.494;6.670;2022-09-29T02:34:15;41.78;;;23.42;;
1218;SDS011;599;51.494;6.670;2022-09-29T02:45:34;27.23;;;22.17;;
1218;SDS011;599;51.494;6.670;2022-09-29T02:51:17;32.13;;;23.17;;
1218;SDS011;599;51.494;6.670;2022-09-29T02:56:36;26.95;;;22.40;;
1218;SDS011;599;51.494;6.670;2022-09-29T02:59:26;30.00;;;22.42;;
1218;SDS011;599;51.494;6.670;2022-09-29T03:02:25;31.42;;;23.30;;
1218;SDS011;599;51.494;6.670;2022-09-29T03:04:51;30.92;;;21.20;;
1218;SDS011;599;51.494;6.670;2022-09-29T03:07:18;28.02;;;23.20;;
1218;SDS011;599;51.494;6.670;2022-09-29T03:09:48;29.23;;;22.27;;
1218;SDS011;599;51.494;6.670;2022-09-29T03:12:14;34.03;;;22.95;;
1218;SDS011;599;51.494;6.670;2022-09-29T03:14:40;33.13;;;23.40;;
1218;SDS011;599;51.494;6.670;2022-09-29T03:17:05;30.70;;;22.83;;
1218;SDS011;599;51.494;6.670;2022-09-29T03:19:31;32.03;;;22.97;;
1218;SDS011;599;51.494;6.670;2022-09-29T03:21:57;31.30;;;21.43;;
1218;SDS011;599;51.494;6.670;2022-09-29T03:24:23;31.60;;;23.50;;
1218;SDS011;599;51.494;6.670;2022-09-29T03:26:49;27.95;;;22.73;;
1218;SDS011;599;51.494;6.670;2022-09-29T03:29:15;29.40;;;22.37;;
1218;SDS011;599;51.494;6.670;2022-09-29T03:31:40;30.23;;;23.83;;
1218;SDS011;599;51.494;6.670;2022-09-29T03:34:06;30.33;;;23.67;;
1218;SDS011;599;51.494;6.670;2022-09-29T03:36:32;28.23;;;23.10;;
1218;SDS011;599;51.494;6.670;2022-09-29T03:38:58;29.07;;;22.67;;
1218;SDS011;599;51.494;6.670;2022-09-29T03:41:24;26.00;;;21.97;;
1218;SDS011;599;51.494;6.670;2022-09-29T03:43:59;38.50;;;23.67;;
1218;SDS011;599;51.494;6.670;2022-09-29T03:46:25;30.60;;;22.38;;
1218;SDS011;599;51.494;6.670;2022-09-29T03:48:50;29.80;;;22.60;;
1218;SDS011;599;51.494;6.670;2022-09-29T03:51:16;30.02;;;22.23;;
1218;SDS011;599;51.494;6.670;2022-09-29T03:53:42;30.43;;;22.23;;
1218;SDS011;599;51.494;6.670;2022-09-29T03:56:08;33.20;;;21.90;;
1218;SDS011;599;51.494;6.670;2022-09-29T03:58:34;26.90;;;21.45;;
1218;SDS011;599;51.494;6.670;2022-09-29T04:01:00;28.98;;;21.60;;
1218;SDS011;599;51.494;6.670;2022-09-29T04:03:26;25.57;;;21.17;;
1218;SDS011;599;51.494;6.670;2022-09-29T04:05:53;26.00;;;21.02;;
1218;SDS011;599;51.494;6.670;2022-09-29T04:08:19;30.47;;;23.20;;
1218;SDS011;599;51.494;6.670;2022-09-29T04:10:45;26.20;;;20.10;;
1218;SDS011;599;51.494;6.670;2022-09-29T04:13:12;27.02;;;20.98;;
1218;SDS011;599;51.494;6.670;2022-09-29T04:15:38;27.98;;;21.40;;
1218;SDS011;599;51.494;6.670;2022-09-29T04:18:04;23.70;;;20.33;;
1218;SDS011;599;51.494;6.670;2022-09-29T04:20:31;30.08;;;21.80;;
1218;SDS011;599;51.494;6.670;2022-09-29T04:22:57;27.83;;;20.55;;
1218;SDS011;599;51.494;6.670;2022-09-29T04:25:25;27.33;;;20.98;;
1218;SDS011;599;51.494;6.670;2022-09-29T04:27:52;28.42;;;21.70;;
1218;SDS011;599;51.494;6.670;2022-09-29T04:30:20;28.20;;;21.95;;
1218;SDS011;599;51.494;6.670;2022-09-29T04:32:47;28.77;;;22.42;;
1218;SDS011;599;51.494;6.670;2022-09-29T04:35:13;25.08;;;20.92;;
1218;SDS011;599;51.494;6.670;2022-09-29T04:37:39;27.57;;;20.37;;
1218;SDS011;599;51.494;6.670;2022-09-29T04:40:05;27.87;;;21.37;;
1218;SDS011;599;51.494;6.670;2022-09-29T04:42:31;31.42;;;23.65;;
1218;SDS011;599;51.494;6.670;2022-09-29T04:44:57;28.40;;;23.20;;
1218;SDS011;599;51.494;6.670;2022-09-29T04:47:23;24.90;;;20.93;;
1218;SDS011;599;51.494;6.670;2022-09-29T04:49:49;28.50;;;23.60;;
1218;SDS011;599;51.494;6.670;2022-09-29T04:52:15;26.48;;;22.35;;
1218;SDS011;599;51.494;6.670;2022-09-29T04:54:41;31.43;;;22.53;;
1218;SDS011;599;51.494;6.670;2022-09-29T04:57:06;29.77;;;21.17;;
1218;SDS011;599;51.494;6.670;2022-09-29T04:59:34;27.10;;;20.92;;
1218;SDS011;599;51.494;6.670;2022-09-29T05:02:00;31.57;;;22.13;;
1218;SDS011;599;51.494;6.670;2022-09-29T05:04:26;29.07;;;22.80;;
1218;SDS011;599;51.494;6.670;2022-09-29T05:06:52;29.33;;;21.20;;
1218;SDS011;599;51.494;6.670;2022-09-29T05:09:18;30.97;;;24.10;;
1218;SDS011;599;51.494;6.670;2022-09-29T05:11:44;34.30;;;26.03;;
1218;SDS011;599;51.494;6.670;2022-09-29T05:14:09;35.17;;;29.57;;
1218;SDS011;599;51.494;6.670;2022-09-29T05:16:35;32.42;;;25.45;;
1218;SDS011;599;51.494;6.670;2022-09-29T05:19:01;30.37;;;23.27;;
1218;SDS011;599;51.494;6.670;2022-09-29T05:21:28;26.73;;;22.83;;
1218;SDS011;599;51.494;6.670;2022-09-29T05:23:54;32.20;;;23.73;;
1218;SDS011;599;51.494;6.670;2022-09-29T05:26:21;25.23;;;20.80;;
1218;SDS011;599;51.494;6.670;2022-09-29T05:28:47;25.27;;;22.17;;
1218;SDS011;599;51.494;6.670;2022-09-29T05:31:13;29.25;;;23.85;;
1218;SDS011;599;51.494;6.670;2022-09-29T05:33:39;28.73;;;23.65;;
1218;SDS011;599;51.494;6.670;2022-09-29T05:36:06;31.67;;;24.00;;
1218;SDS011;599;51.494;6.670;2022-09-29T05:38:35;30.92;;;23.77;;
1218;SDS011;599;51.494;6.670;2022-09-29T05:41:05;28.48;;;22.77;;
1218;SDS011;599;51.494;6.670;2022-09-29T05:43:36;32.60;;;23.65;;
1218;SDS011;599;51.494;6.670;2022-09-29T05:46:03;27.60;;;22.02;;
1218;SDS011;599;51.494;6.670;2022-09-29T05:48:31;28.30;;;23.80;;
1218;SDS011;599;51.494;6.670;2022-09-29T05:50:58;29.65;;;21.92;;
1218;SDS011;599;51.494;6.670;2022-09-29T05:53:30;30.08;;;23.30;;
1218;SDS011;599;51.494;6.670;2022-09-29T05:55:56;31.23;;;22.80;;
1218;SDS011;599;51.494;6.670;2022-09-29T05:58:22;28.75;;;23.45;;
1218;SDS011;599;51.494;6.670;2022-09-29T06:00:48;28.10;;;23.53;;
1218;SDS011;599;51.494;6.670;2022-09-29T06:03:14;31.70;;;25.20;;
1218;SDS011;599;51.494;6.670;2022-09-29T06:05:40;34.55;;;25.75;;
1218;SDS011;599;51.494;6.670;2022-09-29T06:08:07;32.65;;;24.42;;
1218;SDS011;599;51.494;6.670;2022-09-29T06:10:34;33.75;;;23.00;;
1218;SDS011;599;51.494;6.670;2022-09-29T06:13:00;30.27;;;23.48;;
1218;SDS011;599;51.494;6.670;2022-09-29T06:15:27;30.33;;;22.15;;
1218;SDS011;599;51.494;6.670;2022-09-29T06:17:57;28.73;;;24.40;;
1218;SDS011;599;51.494;6.670;2022-09-29T06:20:25;33.10;;;23.65;;
1218;SDS011;599;51.494;6.670;2022-09-29T06:22:52;29.77;;;24.95;;
1218;SDS011;599;51.494;6.670;2022-09-29T06:25:19;28.20;;;23.63;;
1218;SDS011;599;51.494;6.670;2022-09-29T06:27:47;30.10;;;23.85;;
1218;SDS011;599;51.494;6.670;2022-09-29T06:30:14;28.90;;;23.73;;
1218;SDS011;599;51.494;6.670;2022-09-29T06:32:40;28.05;;;23.67;;
1218;SDS011;599;51.494;6.670;2022-09-29T06:35:07;34.92;;;24.17;;
1218;SDS011;599;51.494;6.670;2022-09-29T06:37:52;30.45;;;23.10;;
1218;SDS011;599;51.494;6.670;2022-09-29T06:40:20;35.95;;;24.67;;
1218;SDS011;599;51.494;6.670;2022-09-29T06:42:47;27.65;;;23.63;;
1218;SDS011;599;51.494;6.670;2022-09-29T06:45:14;29.48;;;23.70;;
1218;SDS011;599;51.494;6.670;2022-09-29T06:47:40;29.42;;;23.45;;
1218;SDS011;599;51.494;6.670;2022-09-29T06:50:07;27.92;;;23.85;;
1218;SDS011;599;51.494;6.670;2022-09-29T06:52:34;23.77;;;20.38;;
1218;SDS011;599;51.494;6.670;2022-09-29T06:55:01;26.90;;;23.30;;
1218;SDS011;599;51.494;6.670;2022-09-29T06:57:28;29.05;;;23.30;;
1218;SDS011;599;51.494;6.670;2022-09-29T06:59:54;28.80;;;22.95;;
1218;SDS011;599;51.494;6.670;2022-09-29T07:02:20;29.15;;;23.77;;
1218;SDS011;599;51.494;6.670;2022-09-29T07:04:47;28.10;;;22.20;;
1218;SDS011;599;51.494;6.670;2022-09-29T07:07:13;29.42;;;22.55;;
1218;SDS011;599;51.494;6.670;2022-09-29T07:09:40;27.30;;;23.35;;
1218;SDS011;599;51.494;6.670;2022-09-29T07:12:07;26.63;;;23.05;;
1218;SDS011;599;51.494;6.670;2022-09-29T07:14:36;26.58;;;23.90;;
1218;SDS011;599;51.494;6.670;2022-09-29T07:17:03;32.30;;;24.38;;
1218;SDS011;599;51.494;6.670;2022-09-29T07:19:29;29.23;;;25.13;;
1218;SDS011;599;51.494;6.670;2022-09-29T07:21:56;29.70;;;22.88;;
1218;SDS011;599;51.494;6.670;2022-09-29T07:24:24;32.63;;;23.83;;
1218;SDS011;599;51.494;6.670;2022-09-29T07:26:51;28.55;;;25.02;;
1218;SDS011;599;51.494;6.670;2022-09-29T07:29:17;26.35;;;22.67;;
1218;SDS011;599;51.494;6.670;2022-09-29T07:31:43;29.08;;;24.20;;
1218;SDS011;599;51.494;6.670;2022-09-29T07:34:10;27.95;;;24.73;;
1218;SDS011;599;51.494;6.670;2022-09-29T07:36:37;25.77;;;23.02;;
1218;SDS011;599;51.494;6.670;2022-09-29T07:39:03;27.33;;;24.40;;
1218;SDS011;599;51.494;6.670;2022-09-29T07:41:29;28.65;;;25.17;;
1218;SDS011;599;51.494;6.670;2022-09-29T07:43:56;26.52;;;22.83;;
1218;SDS011;599;51.494;6.670;2022-09-29T07:46:22;31.42;;;21.27;;
1218;SDS011;599;51.494;6.670;2022-09-29T07:48:48;27.25;;;24.10;;
1218;SDS011;599;51.494;6.670;2022-09-29T07:51:16;32.95;;;23.27;;
1218;SDS011;599;51.494;6.670;2022-09-29T07:53:44;30.27;;;21.45;;
1218;SDS011;599;51.494;6.670;2022-09-29T07:56:12;25.50;;;22.80;;
1218;SDS011;599;51.494;6.670;2022-09-29T07:58:40;28.02;;;22.40;;
1218;SDS011;599;51.494;6.670;2022-09-29T08:01:07;25.10;;;22.50;;
1218;SDS011;599;51.494;6.670;2022-09-29T08:03:37;29.58;;;23.45;;
1218;SDS011;599;51.494;6.670;2022-09-29T08:06:06;23.67;;;21.33;;
1218;SDS011;599;51.494;6.670;2022-09-29T08:08:33;25.98;;;21.80;;
1218;SDS011;599;51.494;6.670;2022-09-29T08:11:02;25.88;;;23.23;;
1218;SDS011;599;51.494;6.670;2022-09-29T08:13:34;26.27;;;23.33;;
1218;SDS011;599;51.494;6.670;2022-09-29T08:16:02;26.42;;;23.63;;
1218;SDS011;599;51.494;6.670;2022-09-29T08:18:32;28.50;;;22.92;;
1218;SDS011;599;51.494;6.670;2022-09-29T08:21:00;26.40;;;22.42;;
1218;SDS011;599;51.494;6.670;2022-09-29T08:23:27;29.55;;;22.67;;
1218;SDS011;599;51.494;6.670;2022-09-29T08:25:59;23.98;;;21.38;;
1218;SDS011;599;51.494;6.670;2022-09-29T08:28:28;23.80;;;20.10;;
1218;SDS011;599;51.494;6.670;2022-09-29T08:30:56;24.15;;;19.90;;
1218;SDS011;599;51.494;6.670;2022-09-29T10:52:34;17.40;;;5.87;;
1218;SDS011;599;51.494;6.670;2022-09-29T10:56:22;6.73;;;4.93;;
1218;SDS011;599;51.494;6.670;2022-09-29T10:58:52;11.80;;;5.73;;
1218;SDS011;599;51.494;6.670;2022-09-29T11:01:21;12.60;;;6.47;;
1218;SDS011;599;51.494;6.670;2022-09-29T11:03:49;6.70;;;4.85;;
1218;SDS011;599;51.494;6.670;2022-09-29T11:06:35;6.88;;;4.60;;
1218;SDS011;599;51.494;6.670;2022-09-29T11:09:04;6.93;;;5.40;;
1218;SDS011;599;51.494;6.670;2022-09-29T11:20:03;6.17;;;4.43;;
1218;SDS011;599;51.494;6.670;2022-09-29T11:31:55;8.60;;;3.80;;
1218;SDS011;599;51.494;6.670;2022-09-29T11:35:00;5.60;;;4.67;;
1218;SDS011;599;51.494;6.670;2022-09-29T11:37:47;6.63;;;3.60;;
1218;SDS011;599;51.494;6.670;2022-09-29T11:49:22;4.93;;;3.70;;
1218;SDS011;599;51.494;6.670;2022-09-29T12:00:56;5.80;;;2.90;;
1218;SDS011;599;51.494;6.670;2022-09-29T12:13:19;6.10;;;3.50;;
1218;SDS011;599;51.494;6.670;2022-09-29T12:16:31;5.27;;;2.73;;
1218;SDS011;599;51.494;6.670;2022-09-29T12:21:36;4.80;;;3.27;;
1218;SDS011;599;51.494;6.670;2022-09-29T12:24:10;5.50;;;3.00;;
1218;SDS011;599;51.494;6.670;2022-09-29T12:26:44;7.17;;;3.50;;
1218;SDS011;599;51.494;6.670;2022-09-29T12:29:22;6.10;;;4.10;;
1218;SDS011;599;51.494;6.670;2022-09-29T12:31:58;8.03;;;4.20;;
1218;SDS011;599;51.494;6.670;2022-09-29T12:40:05;6.00;;;3.60;;
1218;SDS011;599;51.494;6.670;2022-09-29T12:45:40;8.73;;;4.10;;
1218;SDS011;599;51.494;6.670;2022-09-29T12:48:34;9.20;;;3.70;;
1218;SDS011;599;51.494;6.670;2022-09-29T12:53:52;3.37;;;2.70;;
1218;SDS011;599;51.494;6.670;2022-09-29T12:56:34;3.40;;;2.23;;
1218;SDS011;599;51.494;6.670;2022-09-29T12:59:05;3.33;;;2.00;;
1218;SDS011;599;51.494;6.670;2022-09-29T13:01:48;4.23;;;2.30;;
1218;SDS011;599;51.494;6.670;2022-09-29T13:07:24;2.50;;;2.10;;
1218;SDS011;599;51.494;6.670;2022-09-29T13:26:57;2.53;;;2.13;;
1218;SDS011;599;51.494;6.670;2022-09-29T13:29:56;6.07;;;2.50;;
1218;SDS011;599;51.494;6.670;2022-09-29T13:32:42;4.10;;;2.30;;
1218;SDS011;599;51.494;6.670;2022-09-29T13:35:14;3.67;;;2.27;;
1218;SDS011;599;51.494;6.670;2022-09-29T13:37:46;7.57;;;2.80;;
1218;SDS011;599;51.494;6.670;2022-09-29T13:40:19;3.90;;;2.53;;
1218;SDS011;599;51.494;6.670;2022-09-29T13:42:52;5.03;;;1.70;;
1218;SDS011;599;51.494;6.670;2022-09-29T13:47:56;2.73;;;1.63;;
1218;SDS011;599;51.494;6.670;2022-09-29T14:00:53;3.43;;;1.93;;
1218;SDS011;599;51.494;6.670;2022-09-29T14:03:27;3.50;;;2.10;;
1218;SDS011;599;51.494;6.670;2022-09-29T14:06:14;2.40;;;1.73;;
1218;SDS011;599;51.494;6.670;2022-09-29T14:11:29;3.00;;;1.60;;
1218;SDS011;599;51.494;6.670;2022-09-29T14:14:16;3.30;;;1.73;;
1218;SDS011;599;51.494;6.670;2022-09-29T14:32:58;4.35;;;1.73;;
1218;SDS011;599;51.494;6.670;2022-09-29T14:35:34;4.80;;;1.70;;
1218;SDS011;599;51.494;6.670;2022-09-29T14:40:57;5.05;;;1.80;;
1218;SDS011;599;51.494;6.670;2022-09-29T14:43:48;2.85;;;1.42;;
1218;SDS011;599;51.494;6.670;2022-09-29T14:52:21;2.67;;;1.23;;
1218;SDS011;599;51.494;6.670;2022-09-29T14:55:37;4.80;;;1.10;;
1218;SDS011;599;51.494;6.670;2022-09-29T15:03:51;3.28;;;1.35;;
1218;SDS011;599;51.494;6.670;2022-09-29T15:06:24;3.90;;;1.88;;
1218;SDS011;599;51.494;6.670;2022-09-29T15:08:57;3.70;;;2.63;;
1218;SDS011;599;51.494;6.670;2022-09-29T15:11:42;6.47;;;1.67;;
1218;SDS011;599;51.494;6.670;2022-09-29T15:19:43;5.90;;;1.30;;
1218;SDS011;599;51.494;6.670;2022-09-29T15:25:59;4.25;;;1.58;;
1218;SDS011;599;51.494;6.670;2022-09-29T15:30:39;5.65;;;2.08;;
1218;SDS011;599;51.494;6.670;2022-09-29T15:35:58;2.67;;;1.30;;
1218;SDS011;599;51.494;6.670;2022-09-29T15:38:32;2.00;;;1.55;;
1218;SDS011;599;51.494;6.670;2022-09-29T15:41:04;4.38;;;2.00;;
1218;SDS011;599;51.494;6.670;2022-09-29T15:46:56;4.70;;;1.95;;
1218;SDS011;599;51.494;6.670;2022-09-29T15:49:29;3.65;;;1.58;;
1218;SDS011;599;51.494;6.670;2022-09-29T15:51:56;3.25;;;1.23;;
1218;SDS011;599;51.494;6.670;2022-09-29T15:54:33;4.28;;;3.00;;
1218;SDS011;599;51.494;6.670;2022-09-29T15:57:26;3.45;;;3.13;;
1218;SDS011;599;51.494;6.670;2022-09-29T16:00:22;4.53;;;2.55;;
1218;SDS011;599;51.494;6.670;2022-09-29T16:09:06;5.82;;;3.58;;
1218;SDS011;599;51.494;6.670;2022-09-29T16:11:43;2.60;;;1.83;;
1218;SDS011;599;51.494;6.670;2022-09-29T16:14:10;5.25;;;2.20;;
1218;SDS011;599;51.494;6.670;2022-09-29T16:16:45;6.90;;;2.72;;
1218;SDS011;599;51.494;6.670;2022-09-29T16:19:16;5.70;;;2.97;;
1218;SDS011;599;51.494;6.670;2022-09-29T16:21:51;5.45;;;2.60;;
1218;SDS011;599;51.494;6.670;2022-09-29T16:24:22;5.00;;;2.88;;
1218;SDS011;599;51.494;6.670;2022-09-29T16:26:53;4.78;;;2.22;;
1218;SDS011;599;51.494;6.670;2022-09-29T16:29:28;4.75;;;3.17;;
1218;SDS011;599;51.494;6.670;2022-09-29T16:32:34;5.25;;;3.15;;
1218;SDS011;599;51.494;6.670;2022-09-29T16:41:06;6.15;;;3.40;;
1218;SDS011;599;51.494;6.670;2022-09-29T16:43:40;6.30;;;2.95;;
1218;SDS011;599;51.494;6.670;2022-09-29T16:46:09;6.63;;;3.85;;
1218;SDS011;599;51.494;6.670;2022-09-29T16:48:43;4.68;;;3.55;;
1218;SDS011;599;51.494;6.670;2022-09-29T16:51:17;4.07;;;3.00;;
1218;SDS011;599;51.494;6.670;2022-09-29T16:53:46;4.35;;;2.97;;
1218;SDS011;599;51.494;6.670;2022-09-29T16:56:15;4.57;;;3.05;;
1218;SDS011;599;51.494;6.670;2022-09-29T16:59:02;4.88;;;2.78;;
1218;SDS011;599;51.494;6.670;2022-09-29T17:01:36;3.03;;;2.38;;
1218;SDS011;599;51.494;6.670;2022-09-29T17:04:04;4.40;;;2.67;;
1218;SDS011;599;51.494;6.670;2022-09-29T17:06:30;4.50;;;2.20;;
1218;SDS011;599;51.494;6.670;2022-09-29T17:08:56;3.87;;;3.03;;
1218;SDS011;599;51.494;6.670;2022-09-29T17:11:23;6.18;;;3.20;;
1218;SDS011;599;51.494;6.670;2022-09-29T17:13:51;5.25;;;2.67;;
1218;SDS011;599;51.494;6.670;2022-09-29T17:16:20;6.13;;;2.55;;
1218;SDS011;599;51.494;6.670;2022-09-29T17:18:47;4.97;;;2.70;;
1218;SDS011;599;51.494;6.670;2022-09-29T17:21:15;4.95;;;2.92;;
1218;SDS011;599;51.494;6.670;2022-09-29T17:23:41;5.30;;;2.83;;
1218;SDS011;599;51.494;6.670;2022-09-29T17:26:20;5.00;;;3.40;;
1218;SDS011;599;51.494;6.670;2022-09-29T17:29:11;4.70;;;3.40;;
1218;SDS011;599;51.494;6.670;2022-09-29T17:31:37;3.50;;;3.07;;
1218;SDS011;599;51.494;6.670;2022-09-29T17:34:03;4.40;;;3.10;;
1218;SDS011;599;51.494;6.670;2022-09-29T17:36:31;6.45;;;3.58;;
1218;SDS011;599;51.494;6.670;2022-09-29T17:38:57;6.25;;;3.42;;
1218;SDS011;599;51.494;6.670;2022-09-29T17:41:23;4.30;;;3.67;;
1218;SDS011;599;51.494;6.670;2022-09-29T17:43:49;4.97;;;3.50;;
1218;SDS011;599;51.494;6.670;2022-09-29T17:46:15;4.80;;;3.83;;
1218;SDS011;599;51.494;6.670;2022-09-29T17:48:41;7.70;;;4.47;;
1218;SDS011;599;51.494;6.670;2022-09-29T17:51:11;6.63;;;4.53;;
1218;SDS011;599;51.494;6.670;2022-09-29T17:53:42;4.65;;;3.67;;
1218;SDS011;599;51.494;6.670;2022-09-29T17:56:19;9.10;;;3.58;;
1218;SDS011;599;51.494;6.670;2022-09-29T17:58:50;6.47;;;4.38;;
1218;SDS011;599;51.494;6.670;2022-09-29T18:01:26;5.38;;;4.05;;
1218;SDS011;599;51.494;6.670;2022-09-29T18:03:52;5.47;;;3.90;;
1218;SDS011;599;51.494;6.670;2022-09-29T18:06:20;6.05;;;5.00;;
1218;SDS011;599;51.494;6.670;2022-09-29T18:08:49;6.10;;;4.82;;
1218;SDS011;599;51.494;6.670;2022-09-29T18:11:21;5.40;;;4.88;;
1218;SDS011;599;51.494;6.670;2022-09-29T18:13:49;6.22;;;4.22;;
1218;SDS011;599;51.494;6.670;2022-09-29T18:16:17;5.22;;;4.72;;
1218;SDS011;599;51.494;6.670;2022-09-29T18:18:46;7.28;;;5.07;;
1218;SDS011;599;51.494;6.670;2022-09-29T18:21:12;7.15;;;5.05;;
1218;SDS011;599;51.494;6.670;2022-09-29T18:23:41;6.30;;;5.03;;
1218;SDS011;599;51.494;6.670;2022-09-29T18:26:09;9.40;;;5.50;;
1218;SDS011;599;51.494;6.670;2022-09-29T18:28:35;5.15;;;4.65;;
1218;SDS011;599;51.494;6.670;2022-09-29T18:31:02;6.55;;;4.90;;
1218;SDS011;599;51.494;6.670;2022-09-29T18:33:32;6.60;;;5.72;;
1218;SDS011;599;51.494;6.670;2022-09-29T18:35:58;5.25;;;4.78;;
1218;SDS011;599;51.494;6.670;2022-09-29T18:38:26;10.07;;;5.45;;
1218;SDS011;599;51.494;6.670;2022-09-29T18:40:52;7.07;;;6.47;;
1218;SDS011;599;51.494;6.670;2022-09-29T18:43:19;7.18;;;5.93;;
1218;SDS011;599;51.494;6.670;2022-09-29T18:45:50;7.15;;;6.45;;
1218;SDS011;599;51.494;6.670;2022-09-29T18:48:17;13.02;;;6.63;;
1218;SDS011;599;51.494;6.670;2022-09-29T18:50:44;6.63;;;6.03;;
1218;SDS011;599;51.494;6.670;2022-09-29T18:53:12;6.85;;;5.60;;
1218;SDS011;599;51.494;6.670;2022-09-29T18:55:40;10.18;;;6.60;;
1218;SDS011;599;51.494;6.670;2022-09-29T18:58:14;6.97;;;5.88;;
1218;SDS011;599;51.494;6.670;2022-09-29T19:00:44;6.65;;;5.20;;
1218;SDS011;599;51.494;6.670;2022-09-29T19:03:16;6.53;;;5.70;;
1218;SDS011;599;51.494;6.670;2022-09-29T19:05:43;6.30;;;5.50;;
1218;SDS011;599;51.494;6.670;2022-09-29T19:08:11;7.57;;;6.65;;
1218;SDS011;599;51.494;6.670;2022-09-29T19:10:39;6.43;;;5.80;;
1218;SDS011;599;51.494;6.670;2022-09-29T19:13:15;6.72;;;6.07;;
1218;SDS011;599;51.494;6.670;2022-09-29T19:15:41;7.90;;;6.80;;
1218;SDS011;599;51.494;6.670;2022-09-29T19:18:09;7.63;;;6.75;;
1218;SDS011;599;51.494;6.670;2022-09-29T19:20:42;10.75;;;6.65;;
1218;SDS011;599;51.494;6.670;2022-09-29T19:23:08;12.27;;;7.83;;
1218;SDS011;599;51.494;6.670;2022-09-29T19:25:35;10.50;;;7.80;;
1218;SDS011;599;51.494;6.670;2022-09-29T19:28:03;7.43;;;6.72;;
1218;SDS011;599;51.494;6.670;2022-09-29T19:30:31;17.02;;;9.55;;
1218;SDS011;599;51.494;6.670;2022-09-29T19:33:00;10.60;;;7.68;;
1218;SDS011;599;51.494;6.670;2022-09-29T19:35:26;8.43;;;7.50;;
1218;SDS011;599;51.494;6.670;2022-09-29T19:37:53;10.52;;;9.05;;
1218;SDS011;599;51.494;6.670;2022-09-29T19:40:24;9.48;;;8.57;;
1218;SDS011;599;51.494;6.670;2022-09-29T19:42:55;10.05;;;7.28;;
1218;SDS011;599;51.494;6.670;2022-09-29T19:45:24;12.30;;;8.05;;
1218;SDS011;599;51.494;6.670;2022-09-29T19:47:52;9.82;;;7.88;;
1218;SDS011;599;51.494;6.670;2022-09-29T19:50:21;9.68;;;8.70;;
1218;SDS011;599;51.494;6.670;2022-09-29T19:53:07;10.55;;;7.38;;
1218;SDS011;599;51.494;6.670;2022-09-29T19:55:39;11.25;;;7.97;;
1218;SDS011;599;51.494;6.670;2022-09-29T19:58:06;9.80;;;7.95;;
1218;SDS011;599;51.494;6.670;2022-09-29T20:00:32;8.80;;;7.90;;
1218;SDS011;599;51.494;6.670;2022-09-29T20:02:58;11.50;;;8.77;;
1218;SDS011;599;51.494;6.670;2022-09-29T20:05:24;9.40;;;7.60;;
1218;SDS011;599;51.494;6.670;2022-09-29T20:07:50;9.13;;;7.77;;
1218;SDS011;599;51.494;6.670;2022-09-29T20:10:16;10.10;;;7.83;;
1218;SDS011;599;51.494;6.670;2022-09-29T20:12:45;10.23;;;8.35;;
1218;SDS011;599;51.494;6.670;2022-09-29T20:15:11;10.00;;;9.00;;
1218;SDS011;599;51.494;6.670;2022-09-29T20:17:38;13.10;;;9.77;;
1218;SDS011;599;51.494;6.670;2022-09-29T20:20:05;10.63;;;9.05;;
1218;SDS011;599;51.494;6.670;2022-09-29T20:22:35;9.23;;;8.32;;
1218;SDS011;599;51.494;6.670;2022-09-29T20:25:02;11.40;;;9.27;;
1218;SDS011;599;51.494;6.670;2022-09-29T20:27:29;11.82;;;9.85;;
1218;SDS011;599;51.494;6.670;2022-09-29T20:29:56;12.88;;;10.50;;
1218;SDS011;599;51.494;6.670;2022-09-29T20:32:22;14.50;;;10.65;;
1218;SDS011;599;51.494;6.670;2022-09-29T20:34:48;11.88;;;10.68;;
1218;SDS011;599;51.494;6.670;2022-09-29T20:37:14;14.93;;;10.73;;
1218;SDS011;599;51.494;6.670;2022-09-29T20:39:40;15.00;;;11.30;;
1218;SDS011;599;51.494;6.670;2022-09-29T20:42:07;14.07;;;11.38;;
1218;SDS011;599;51.494;6.670;2022-09-29T20:44:32;12.43;;;11.13;;
1218;SDS011;599;51.494;6.670;2022-09-29T20:46:58;15.70;;;12.43;;
1218;SDS011;599;51.494;6.670;2022-09-29T20:49:24;14.30;;;12.53;;
1218;SDS011;599;51.494;6.670;2022-09-29T20:51:51;14.45;;;12.23;;
1218;SDS011;599;51.494;6.670;2022-09-29T20:54:18;14.02;;;12.70;;
1218;SDS011;599;51.494;6.670;2022-09-29T20:56:44;15.43;;;13.80;;
1218;SDS011;599;51.494;6.670;2022-09-29T20:59:11;18.30;;;16.30;;
1218;SDS011;599;51.494;6.670;2022-09-29T21:01:42;20.83;;;17.70;;
1218;SDS011;599;51.494;6.670;2022-09-29T21:04:13;18.23;;;16.40;;
1218;SDS011;599;51.494;6.670;2022-09-29T21:06:42;22.27;;;18.00;;
1218;SDS011;599;51.494;6.670;2022-09-29T21:09:15;21.08;;;18.80;;
1218;SDS011;599;51.494;6.670;2022-09-29T21:11:46;23.63;;;18.50;;